Time,TemperatureF,DewpointF,PressureIn,WindDirection,WindDirectionDegrees,WindSpeedMPH,WindSpeedGustMPH,Humidity,HourlyPrecipIn,Conditions,Clouds,dailyrainin,SoftwareType,DateUTC
2013-05-24 00:03:00,58.0,55.0,29.84,WSW,251,3.0,9.0,89,0.01,,,0.15,,2013-05-24 04:03:00,
2013-05-24 00:12:00,58.0,55.0,29.84,WSW,251,3.0,9.0,89,0.01,,,0.15,,2013-05-24 04:12:00,
2013-05-24 00:23:00,57.0,53.0,29.85,WNW,300,2.0,14.0,88,0.00,,,0.15,,2013-05-24 04:23:00,
2013-05-24 00:33:00,57.0,53.0,29.85,North,5,3.0,14.0,87,0.00,,,0.14,,2013-05-24 04:33:00,
2013-05-24 00:42:00,57.0,53.0,29.85,North,5,3.0,14.0,87,0.00,,,0.14,,2013-05-24 04:42:00,
2013-05-24 00:53:00,57.0,53.0,29.85,NE,40,3.0,12.0,86,0.00,,,0.13,,2013-05-24 04:53:00,
2013-05-24 01:02:00,57.0,53.0,29.85,North,11,3.0,13.0,85,0.00,,,0.11,,2013-05-24 05:02:00,
2013-05-24 01:12:00,57.0,53.0,29.85,North,11,3.0,13.0,85,0.00,,,0.11,,2013-05-24 05:12:00,
2013-05-24 01:22:00,57.0,53.0,29.84,WNW,287,3.0,12.0,85,0.00,,,0.10,,2013-05-24 05:22:00,
2013-05-24 01:32:00,56.0,52.0,29.83,WNW,290,2.0,12.0,85,0.00,,,0.10,,2013-05-24 05:32:00,
2013-05-24 01:42:00,56.0,52.0,29.83,WNW,290,2.0,12.0,85,0.00,,,0.10,,2013-05-24 05:42:00,
2013-05-24 01:52:00,56.0,52.0,29.83,WNW,286,2.0,10.0,85,0.00,,,0.10,,2013-05-24 05:52:00,
2013-05-24 02:02:00,56.0,52.0,29.83,West,279,2.0,6.0,85,0.00,,,0.10,,2013-05-24 06:02:00,
2013-05-24 02:12:00,56.0,52.0,29.83,West,279,2.0,6.0,85,0.00,,,0.10,,2013-05-24 06:12:00,
2013-05-24 02:21:00,56.0,51.0,29.82,West,271,2.0,12.0,84,0.00,,,0.10,,2013-05-24 06:21:00,
2013-05-24 02:32:00,56.0,51.0,29.81,NW,323,1.0,10.0,84,0.00,,,0.09,,2013-05-24 06:32:00,
2013-05-24 02:42:00,56.0,51.0,29.81,NW,323,1.0,10.0,84,0.00,,,0.09,,2013-05-24 06:42:00,
2013-05-24 02:52:00,56.0,51.0,29.81,NW,307,3.0,12.0,84,0.00,,,0.09,,2013-05-24 06:52:00,
2013-05-24 03:01:00,56.0,51.0,29.80,WSW,256,3.0,10.0,84,0.00,,,0.09,,2013-05-24 07:01:00,
2013-05-24 03:11:00,56.0,51.0,29.80,WSW,256,3.0,10.0,84,0.00,,,0.09,,2013-05-24 07:11:00,
2013-05-24 03:22:00,56.0,51.0,29.80,WNW,286,3.0,12.0,84,0.00,,,0.09,,2013-05-24 07:22:00,
2013-05-24 03:32:00,56.0,51.0,29.80,WNW,292,2.0,13.0,84,0.00,,,0.09,,2013-05-24 07:32:00,
2013-05-24 03:42:00,56.0,51.0,29.80,WNW,292,2.0,13.0,84,0.00,,,0.09,,2013-05-24 07:42:00,
2013-05-24 03:52:00,55.0,50.0,29.80,NNW,348,2.0,15.0,84,0.00,,,0.09,,2013-05-24 07:52:00,
2013-05-24 04:02:00,55.0,50.0,29.80,NNE,30,5.0,16.0,83,0.00,,,0.09,,2013-05-24 08:02:00,
2013-05-24 04:11:00,55.0,50.0,29.80,NNE,30,5.0,16.0,83,0.00,,,0.09,,2013-05-24 08:11:00,
2013-05-24 04:22:00,55.0,50.0,29.81,North,10,3.0,20.0,83,0.00,,,0.09,,2013-05-24 08:22:00,
2013-05-24 04:33:00,55.0,50.0,29.81,WSW,250,2.0,10.0,84,0.00,,,0.09,,2013-05-24 08:33:00,
2013-05-24 04:42:00,55.0,50.0,29.81,WSW,250,2.0,10.0,84,0.00,,,0.09,,2013-05-24 08:42:00,
2013-05-24 04:52:00,55.0,50.0,29.81,NNW,340,6.0,15.0,84,0.00,,,0.09,,2013-05-24 08:52:00,
2013-05-24 05:02:00,55.0,50.0,29.82,NW,309,5.0,15.0,84,0.00,,,0.09,,2013-05-24 09:02:00,
2013-05-24 05:11:00,55.0,50.0,29.82,NW,309,5.0,15.0,84,0.00,,,0.09,,2013-05-24 09:11:00,
2013-05-24 05:22:00,55.0,51.0,29.83,WNW,290,6.0,14.0,85,0.00,,,0.09,,2013-05-24 09:22:00,
2013-05-24 05:32:00,55.0,51.0,29.83,NW,321,2.0,12.0,85,0.00,,,0.09,,2013-05-24 09:32:00,
2013-05-24 05:42:00,55.0,51.0,29.83,NW,321,2.0,12.0,85,0.00,,,0.09,,2013-05-24 09:42:00,
2013-05-24 05:53:00,55.0,51.0,29.83,NNW,340,2.0,10.0,86,0.00,,,0.09,,2013-05-24 09:53:00,
2013-05-24 06:03:00,54.0,50.0,29.83,NE,53,2.0,12.0,87,0.00,,,0.09,,2013-05-24 10:03:00,
2013-05-24 06:12:00,54.0,50.0,29.83,NE,53,2.0,12.0,87,0.00,,,0.09,,2013-05-24 10:12:00,
2013-05-24 06:22:00,54.0,51.0,29.83,NW,315,1.0,7.0,88,0.02,,,0.11,,2013-05-24 10:22:00,
2013-05-24 06:33:00,54.0,51.0,29.85,West,262,3.0,15.0,90,0.02,,,0.11,,2013-05-24 10:33:00,
2013-05-24 06:42:00,54.0,51.0,29.85,West,262,3.0,15.0,90,0.02,,,0.11,,2013-05-24 10:42:00,
2013-05-24 06:53:00,54.0,51.0,29.85,WNW,294,2.0,7.0,91,0.05,,,0.14,,2013-05-24 10:53:00,
2013-05-24 07:02:00,53.0,50.0,29.86,West,275,3.0,12.0,91,0.05,,,0.14,,2013-05-24 11:02:00,
2013-05-24 07:12:00,53.0,50.0,29.86,West,275,3.0,12.0,91,0.05,,,0.14,,2013-05-24 11:12:00,
2013-05-24 07:22:00,53.0,50.0,29.87,West,260,1.0,9.0,91,0.04,,,0.15,,2013-05-24 11:22:00,
2013-05-24 07:32:00,53.0,50.0,29.88,NW,306,2.0,13.0,90,0.05,,,0.16,,2013-05-24 11:32:00,
2013-05-24 07:42:00,53.0,50.0,29.88,NW,306,2.0,13.0,90,0.05,,,0.16,,2013-05-24 11:42:00,
2013-05-24 07:52:00,52.0,49.0,29.89,NW,314,3.0,12.0,90,0.02,,,0.16,,2013-05-24 11:52:00,
2013-05-24 08:02:00,52.0,49.0,29.91,NNW,332,3.0,20.0,89,0.02,,,0.16,,2013-05-24 12:02:00,
2013-05-24 08:11:00,52.0,49.0,29.91,NNW,332,3.0,20.0,89,0.02,,,0.16,,2013-05-24 12:11:00,
2013-05-24 08:22:00,51.0,48.0,29.91,WNW,290,4.0,10.0,89,0.01,,,0.16,,2013-05-24 12:22:00,
2013-05-24 08:32:00,51.0,48.0,29.93,NNW,343,2.0,12.0,89,0.00,,,0.16,,2013-05-24 12:32:00,
2013-05-24 08:42:00,51.0,48.0,29.93,NNW,343,2.0,12.0,89,0.00,,,0.16,,2013-05-24 12:42:00,
2013-05-24 08:52:00,50.0,47.0,29.95,NNW,346,7.0,17.0,88,0.00,,,0.16,,2013-05-24 12:52:00,
2013-05-24 09:02:00,50.0,47.0,29.95,North,354,7.0,17.0,88,0.00,,,0.16,,2013-05-24 13:02:00,
2013-05-24 09:11:00,50.0,47.0,29.95,North,354,7.0,17.0,88,0.00,,,0.16,,2013-05-24 13:11:00,
2013-05-24 09:21:00,49.0,45.0,29.96,West,277,5.0,16.0,86,0.00,,,0.16,,2013-05-24 13:21:00,
2013-05-24 09:32:00,49.0,44.0,29.98,West,272,6.0,15.0,84,0.00,,,0.15,,2013-05-24 13:32:00,
2013-05-24 09:42:00,49.0,44.0,29.98,West,272,6.0,15.0,84,0.00,,,0.15,,2013-05-24 13:42:00,
2013-05-24 09:52:00,49.0,43.0,29.99,West,280,4.0,16.0,80,0.00,,,0.15,,2013-05-24 13:52:00,
2013-05-24 10:01:00,49.0,43.0,30.00,West,274,3.0,14.0,80,0.00,,,0.15,,2013-05-24 14:01:00,
2013-05-24 10:11:00,49.0,43.0,30.00,West,274,3.0,14.0,80,0.00,,,0.15,,2013-05-24 14:11:00,
2013-05-24 10:21:00,48.0,42.0,30.02,NW,314,2.0,18.0,80,0.00,,,0.15,,2013-05-24 14:21:00,
2013-05-24 10:32:00,47.0,42.0,30.03,West,271,3.0,14.0,83,0.00,,,0.15,,2013-05-24 14:32:00,
2013-05-24 10:42:00,47.0,42.0,30.03,West,271,3.0,14.0,83,0.00,,,0.15,,2013-05-24 14:42:00,
2013-05-24 10:52:00,46.0,41.0,30.04,WNW,285,5.0,14.0,82,0.00,,,0.15,,2013-05-24 14:52:00,
2013-05-24 11:02:00,46.0,41.0,30.04,West,274,6.0,18.0,82,0.00,,,0.15,,2013-05-24 15:02:00,
2013-05-24 11:11:00,46.0,41.0,30.04,West,274,6.0,18.0,82,0.00,,,0.15,,2013-05-24 15:11:00,
2013-05-24 11:21:00,47.0,41.0,30.05,WNW,283,5.0,12.0,81,0.00,,,0.15,,2013-05-24 15:21:00,
2013-05-24 11:33:00,47.0,41.0,30.04,West,277,6.0,20.0,80,0.00,,,0.15,,2013-05-24 15:33:00,
2013-05-24 11:43:00,47.0,41.0,30.04,West,277,6.0,20.0,80,0.00,,,0.15,,2013-05-24 15:43:00,
2013-05-24 11:52:00,48.0,42.0,30.05,SSE,151,3.0,16.0,79,0.00,,,0.15,,2013-05-24 15:52:00,
2013-05-24 12:03:00,49.0,41.0,30.05,ENE,58,4.0,16.0,75,0.00,,,0.15,,2013-05-24 16:03:00,
2013-05-24 12:12:00,49.0,41.0,30.05,ENE,58,4.0,16.0,75,0.00,,,0.15,,2013-05-24 16:12:00,
2013-05-24 12:22:00,51.0,42.0,30.05,WNW,285,6.0,20.0,71,0.00,,,0.15,,2013-05-24 16:22:00,
2013-05-24 12:32:00,52.0,41.0,30.05,NE,38,5.0,20.0,67,0.00,,,0.15,,2013-05-24 16:32:00,
2013-05-24 12:42:00,52.0,41.0,30.05,NE,38,5.0,20.0,67,0.00,,,0.15,,2013-05-24 16:42:00,
2013-05-24 12:52:00,52.0,42.0,30.05,WNW,287,5.0,20.0,68,0.00,,,0.15,,2013-05-24 16:52:00,
2013-05-24 13:02:00,55.0,43.0,30.05,North,354,6.0,16.0,64,0.00,,,0.15,,2013-05-24 17:02:00,
2013-05-24 13:12:00,55.0,43.0,30.05,North,354,6.0,16.0,64,0.00,,,0.15,,2013-05-24 17:12:00,
2013-05-24 13:22:00,55.0,41.0,30.04,NNW,338,5.0,25.0,59,0.00,,,0.15,,2013-05-24 17:22:00,
2013-05-24 13:32:00,56.0,43.0,30.05,WNW,283,7.0,16.0,61,0.00,,,0.15,,2013-05-24 17:32:00,
2013-05-24 13:42:00,56.0,43.0,30.05,WNW,283,7.0,16.0,61,0.00,,,0.15,,2013-05-24 17:42:00,
2013-05-24 13:52:00,56.0,42.0,30.05,ENE,76,6.0,20.0,60,0.00,,,0.15,,2013-05-24 17:52:00,
2013-05-24 14:01:00,56.0,42.0,30.05,North,350,7.0,18.0,59,0.00,,,0.15,,2013-05-24 18:01:00,
2013-05-24 14:12:00,56.0,42.0,30.05,North,350,7.0,18.0,59,0.00,,,0.15,,2013-05-24 18:12:00,
2013-05-24 14:22:00,57.0,42.0,30.05,NNE,29,5.0,16.0,57,0.00,,,0.15,,2013-05-24 18:22:00,
2013-05-24 14:32:00,57.0,41.0,30.05,NNW,331,4.0,22.0,54,0.00,,,0.15,,2013-05-24 18:32:00,
2013-05-24 14:42:00,57.0,39.0,30.05,WSW,240,5.0,17.0,50,0.00,,,0.15,,2013-05-24 18:42:00,
2013-05-24 14:52:00,57.0,39.0,30.05,WSW,240,5.0,17.0,50,0.00,,,0.15,,2013-05-24 18:52:00,
2013-05-24 15:01:00,58.0,39.0,30.05,NNE,15,5.0,18.0,50,0.00,,,0.15,,2013-05-24 19:01:00,
2013-05-24 15:11:00,58.0,39.0,30.05,NNE,15,5.0,18.0,50,0.00,,,0.15,,2013-05-24 19:11:00,
2013-05-24 15:21:00,58.0,39.0,30.04,NNE,13,7.0,16.0,50,0.00,,,0.15,,2013-05-24 19:21:00,
2013-05-24 15:32:00,59.0,39.0,30.05,NW,315,5.0,14.0,47,0.00,,,0.15,,2013-05-24 19:32:00,
2013-05-24 15:42:00,59.0,39.0,30.05,NW,315,5.0,14.0,47,0.00,,,0.15,,2013-05-24 19:42:00,
2013-05-24 15:52:00,60.0,41.0,30.04,NE,35,3.0,18.0,50,0.00,,,0.15,,2013-05-24 19:52:00,
2013-05-24 16:02:00,60.0,41.0,30.05,North,355,5.0,20.0,49,0.00,,,0.15,,2013-05-24 20:02:00,
2013-05-24 16:12:00,60.0,41.0,30.05,North,355,5.0,20.0,49,0.00,,,0.15,,2013-05-24 20:12:00,
2013-05-24 16:21:00,59.0,39.0,30.04,NE,52,4.0,15.0,47,0.00,,,0.15,,2013-05-24 20:21:00,
2013-05-24 16:32:00,60.0,39.0,30.05,NW,313,5.0,18.0,45,0.00,,,0.15,,2013-05-24 20:32:00,
2013-05-24 16:42:00,60.0,39.0,30.05,NW,313,5.0,18.0,45,0.00,,,0.15,,2013-05-24 20:42:00,
2013-05-24 16:52:00,60.0,37.0,30.05,West,263,7.0,17.0,43,0.00,,,0.15,,2013-05-24 20:52:00,
2013-05-24 17:01:00,59.0,37.0,30.05,West,280,5.0,21.0,44,0.00,,,0.15,,2013-05-24 21:01:00,
2013-05-24 17:11:00,59.0,37.0,30.05,West,280,5.0,21.0,44,0.00,,,0.15,,2013-05-24 21:11:00,
2013-05-24 17:21:00,59.0,37.0,30.05,North,1,6.0,17.0,43,0.00,,,0.15,,2013-05-24 21:21:00,
2013-05-24 17:33:00,59.0,38.0,30.05,NNE,17,7.0,17.0,45,0.00,,,0.15,,2013-05-24 21:33:00,
2013-05-24 17:42:00,59.0,38.0,30.05,NNE,17,7.0,17.0,45,0.00,,,0.15,,2013-05-24 21:42:00,
2013-05-24 17:53:00,59.0,37.0,30.06,North,1,5.0,21.0,44,0.00,,,0.15,,2013-05-24 21:53:00,
2013-05-24 18:02:00,59.0,37.0,30.06,WNW,287,5.0,20.0,43,0.00,,,0.15,,2013-05-24 22:02:00,
2013-05-24 18:12:00,59.0,37.0,30.06,WNW,287,5.0,20.0,43,0.00,,,0.15,,2013-05-24 22:12:00,
2013-05-24 18:22:00,59.0,36.0,30.06,North,0,5.0,20.0,42,0.00,,,0.15,,2013-05-24 22:22:00,
2013-05-24 18:33:00,59.0,35.0,30.07,NW,320,7.0,20.0,40,0.00,,,0.15,,2013-05-24 22:33:00,
2013-05-24 18:42:00,59.0,35.0,30.07,NW,320,7.0,20.0,40,0.00,,,0.15,,2013-05-24 22:42:00,
2013-05-24 18:52:00,58.0,34.0,30.08,NW,324,5.0,20.0,41,0.00,,,0.15,,2013-05-24 22:52:00,
2013-05-24 19:02:00,58.0,34.0,30.08,North,0,8.0,20.0,40,0.00,,,0.15,,2013-05-24 23:02:00,
2013-05-24 19:11:00,58.0,34.0,30.08,North,0,8.0,20.0,40,0.00,,,0.15,,2013-05-24 23:11:00,
2013-05-24 19:22:00,57.0,35.0,30.08,NW,321,3.0,21.0,44,0.00,,,0.15,,2013-05-24 23:22:00,
2013-05-24 19:32:00,57.0,35.0,30.09,WSW,258,4.0,20.0,43,0.00,,,0.15,,2013-05-24 23:32:00,
2013-05-24 19:42:00,57.0,35.0,30.09,WSW,258,4.0,20.0,43,0.00,,,0.15,,2013-05-24 23:42:00,
2013-05-24 19:52:00,56.0,35.0,30.10,West,275,5.0,12.0,45,0.00,,,0.13,,2013-05-24 23:52:00,
2013-05-24 20:01:00,55.0,35.0,30.11,North,4,6.0,14.0,47,0.00,,,0.13,,2013-05-25 00:01:00,
2013-05-24 20:12:00,55.0,35.0,30.11,North,4,6.0,14.0,47,0.00,,,0.13,,2013-05-25 00:12:00,
2013-05-24 20:22:00,55.0,37.0,30.11,North,5,1.0,12.0,50,0.00,,,0.13,,2013-05-25 00:22:00,
2013-05-24 20:32:00,54.0,35.0,30.12,North,358,2.0,10.0,48,0.00,,,0.09,,2013-05-25 00:32:00,
2013-05-24 20:42:00,54.0,35.0,30.12,North,358,2.0,10.0,48,0.00,,,0.09,,2013-05-25 00:42:00,
2013-05-24 20:52:00,53.0,36.0,30.13,WNW,298,0.0,6.0,52,0.00,,,0.09,,2013-05-25 00:52:00,
2013-05-24 21:01:00,52.0,35.0,30.13,NNW,337,4.0,12.0,52,0.00,,,0.08,,2013-05-25 01:01:00,
2013-05-24 21:11:00,52.0,35.0,30.13,NNW,337,4.0,12.0,52,0.00,,,0.08,,2013-05-25 01:11:00,
2013-05-24 21:22:00,52.0,36.0,30.14,North,357,2.0,9.0,54,0.00,,,0.08,,2013-05-25 01:22:00,
2013-05-24 21:32:00,51.0,35.0,30.15,North,355,1.0,6.0,55,0.00,,,0.08,,2013-05-25 01:32:00,
2013-05-24 21:42:00,51.0,35.0,30.15,North,355,1.0,6.0,55,0.00,,,0.08,,2013-05-25 01:42:00,
2013-05-24 21:52:00,50.0,35.0,30.15,West,261,1.0,5.0,57,0.00,,,0.08,,2013-05-25 01:52:00,
2013-05-24 22:02:00,50.0,35.0,30.15,West,261,1.0,5.0,57,0.00,,,0.08,,2013-05-25 02:02:00,
2013-05-24 22:12:00,50.0,35.0,30.15,West,261,1.0,5.0,57,0.00,,,0.08,,2013-05-25 02:12:00,
2013-05-24 22:21:00,49.0,36.0,30.16,NNW,345,0.0,2.0,61,0.00,,,0.08,,2013-05-25 02:21:00,
2013-05-24 22:32:00,48.0,37.0,30.16,NNW,344,1.0,2.0,65,0.00,,,0.08,,2013-05-25 02:32:00,
2013-05-24 22:42:00,48.0,37.0,30.16,NNW,344,1.0,2.0,65,0.00,,,0.08,,2013-05-25 02:42:00,
2013-05-24 22:52:00,47.0,37.0,30.17,NNW,344,0.0,2.0,68,0.00,,,0.08,,2013-05-25 02:52:00,
2013-05-24 23:02:00,47.0,37.0,30.18,NNW,342,1.0,3.0,69,0.00,,,0.08,,2013-05-25 03:02:00,
2013-05-24 23:11:00,47.0,37.0,30.18,NNW,342,1.0,3.0,69,0.00,,,0.08,,2013-05-25 03:11:00,
2013-05-24 23:21:00,46.0,37.0,30.18,NNW,347,0.0,5.0,71,0.00,,,0.07,,2013-05-25 03:21:00,
2013-05-24 23:32:00,46.0,37.0,30.17,West,266,1.0,10.0,71,0.00,,,0.07,,2013-05-25 03:32:00,
2013-05-24 23:43:00,46.0,37.0,30.17,West,266,1.0,10.0,71,0.00,,,0.07,,2013-05-25 03:43:00,
2013-05-24 23:53:00,46.0,37.0,30.17,NNW,343,1.0,6.0,70,0.00,,,0.07,,2013-05-25 03:53:00,